sensor_id;sensor_type;location;lat;lon;timestamp;P1;P2;P0
46302;PMS7003;32029;51.358;5.628;2022-08-07T00:01:48;3.67;3.67;3.00
46302;PMS7003;32029;51.358;5.628;2022-08-07T00:04:14;6.00;4.33;3.00
46302;PMS7003;32029;51.358;5.628;2022-08-07T00:06:42;5.33;5.33;4.33
46302;PMS7003;32029;51.358;5.628;2022-08-07T00:09:08;5.33;5.33;5.00
46302;PMS7003;32029;51.358;5.628;2022-08-07T00:11:35;5.00;5.00;4.00
46302;PMS7003;32029;51.358;5.628;2022-08-07T00:14:02;7.33;5.00;4.00
46302;PMS7003;32029;51.358;5.628;2022-08-07T00:16:28;7.00;4.67;4.00
46302;PMS7003;32029;51.358;5.628;2022-08-07T00:18:56;4.00;4.00;4.00
46302;PMS7003;32029;51.358;5.628;2022-08-07T00:21:23;6.67;5.00;3.67
46302;PMS7003;32029;51.358;5.628;2022-08-07T00:23:50;5.33;5.33;4.33
46302;PMS7003;32029;51.358;5.628;2022-08-07T00:26:17;4.00;4.00;4.00
46302;PMS7003;32029;51.358;5.628;2022-08-07T00:28:44;4.00;4.00;4.00
46302;PMS7003;32029;51.358;5.628;2022-08-07T00:31:10;5.33;5.00;4.00
46302;PMS7003;32029;51.358;5.628;2022-08-07T00:33:38;6.00;5.00;4.00
46302;PMS7003;32029;51.358;5.628;2022-08-07T00:36:06;5.67;5.67;5.33
46302;PMS7003;32029;51.358;5.628;2022-08-07T00:38:33;5.00;5.00;4.00
46302;PMS7003;32029;51.358;5.628;2022-08-07T00:41:03;4.80;4.80;4.20
46302;PMS7003;32029;51.358;5.628;2022-08-07T00:43:31;6.00;6.00;5.00
46302;PMS7003;32029;51.358;5.628;2022-08-07T00:45:59;5.00;5.00;4.67
46302;PMS7003;32029;51.358;5.628;2022-08-07T00:48:26;8.00;7.67;5.67
46302;PMS7003;32029;51.358;5.628;2022-08-07T00:50:53;5.67;5.67;5.00
46302;PMS7003;32029;51.358;5.628;2022-08-07T00:53:20;4.33;4.33;3.33
46302;PMS7003;32029;51.358;5.628;2022-08-07T00:55:51;6.29;6.29;4.57
46302;PMS7003;32029;51.358;5.628;2022-08-07T00:58:18;6.00;5.33;4.00
46302;PMS7003;32029;51.358;5.628;2022-08-07T01:00:49;8.57;7.00;5.14
46302;PMS7003;32029;51.358;5.628;2022-08-07T01:03:17;5.20;4.20;4.00
46302;PMS7003;32029;51.358;5.628;2022-08-07T01:05:44;6.00;6.00;4.33
46302;PMS7003;32029;51.358;5.628;2022-08-07T01:08:12;3.00;3.00;2.00
46302;PMS7003;32029;51.358;5.628;2022-08-07T01:10:39;4.33;4.33;4.00
46302;PMS7003;32029;51.358;5.628;2022-08-07T01:13:05;5.00;5.00;5.00
46302;PMS7003;32029;51.358;5.628;2022-08-07T01:15:33;5.40;5.40;5.00
46302;PMS7003;32029;51.358;5.628;2022-08-07T01:18:02;8.33;5.33;4.67
46302;PMS7003;32029;51.358;5.628;2022-08-07T01:20:33;8.67;7.00;6.00
46302;PMS7003;32029;51.358;5.628;2022-08-07T01:23:07;6.00;5.00;4.00
46302;PMS7003;32029;51.358;5.628;2022-08-07T01:25:33;8.67;7.33;6.00
46302;PMS7003;32029;51.358;5.628;2022-08-07T01:28:00;9.00;7.00;5.33
46302;PMS7003;32029;51.358;5.628;2022-08-07T01:30:27;7.67;5.67;4.00
46302;PMS7003;32029;51.358;5.628;2022-08-07T01:32:57;9.00;6.80;6.00
46302;PMS7003;32029;51.358;5.628;2022-08-07T01:35:25;4.00;3.80;3.00
46302;PMS7003;32029;51.358;5.628;2022-08-07T01:37:53;9.80;7.20;5.60
46302;PMS7003;32029;51.358;5.628;2022-08-07T01:40:20;7.00;6.67;5.00
46302;PMS7003;32029;51.358;5.628;2022-08-07T01:42:51;8.00;8.00;6.60
46302;PMS7003;32029;51.358;5.628;2022-08-07T01:45:19;9.00;6.00;6.00
46302;PMS7003;32029;51.358;5.628;2022-08-07T01:47:47;7.60;7.60;6.20
46302;PMS7003;32029;51.358;5.628;2022-08-07T01:50:15;9.00;9.00;6.40
46302;PMS7003;32029;51.358;5.628;2022-08-07T01:52:42;12.67;11.33;9.00
46302;PMS7003;32029;51.358;5.628;2022-08-07T01:55:12;6.00;6.00;4.67
46302;PMS7003;32029;51.358;5.628;2022-08-07T01:57:41;6.00;6.00;5.00
46302;PMS7003;32029;51.358;5.628;2022-08-07T02:00:10;9.60;8.80;6.40
46302;PMS7003;32029;51.358;5.628;2022-08-07T02:02:44;10.80;8.80;6.00
46302;PMS7003;32029;51.358;5.628;2022-08-07T02:05:17;6.60;5.20;5.00
46302;PMS7003;32029;51.358;5.628;2022-08-07T02:07:52;9.00;8.80;6.00
46302;PMS7003;32029;51.358;5.628;2022-08-07T02:10:23;7.80;7.80;6.00
46302;PMS7003;32029;51.358;5.628;2022-08-07T02:12:55;9.60;9.40;7.60
46302;PMS7003;32029;51.358;5.628;2022-08-07T02:15:25;8.33;8.33;6.67
46302;PMS7003;32029;51.358;5.628;2022-08-07T02:17:53;10.33;7.33;5.00
46302;PMS7003;32029;51.358;5.628;2022-08-07T02:20:22;10.00;8.40;5.40
46302;PMS7003;32029;51.358;5.628;2022-08-07T02:22:55;8.00;8.00;6.00
46302;PMS7003;32029;51.358;5.628;2022-08-07T02:25:24;7.67;7.67;6.00
46302;PMS7003;32029;51.358;5.628;2022-08-07T02:27:56;7.60;7.60;6.00
46302;PMS7003;32029;51.358;5.628;2022-08-07T02:30:26;9.00;8.00;8.00
46302;PMS7003;32029;51.358;5.628;2022-08-07T02:32:56;11.00;8.20;6.00
46302;PMS7003;32029;51.358;5.628;2022-08-07T02:35:26;9.40;9.20;7.60
46302;PMS7003;32029;51.358;5.628;2022-08-07T02:37:56;10.60;9.20;6.40
46302;PMS7003;32029;51.358;5.628;2022-08-07T02:40:25;11.40;9.60;7.80
46302;PMS7003;32029;51.358;5.628;2022-08-07T02:42:54;9.60;9.40;8.00
46302;PMS7003;32029;51.358;5.628;2022-08-07T02:45:24;12.00;10.67;7.67
46302;PMS7003;32029;51.358;5.628;2022-08-07T02:47:53;8.67;8.67;8.00
46302;PMS7003;32029;51.358;5.628;2022-08-07T02:50:20;10.00;9.00;8.00
46302;PMS7003;32029;51.358;5.628;2022-08-07T02:55:22;9.20;9.00;8.00
46302;PMS7003;32029;51.358;5.628;2022-08-07T02:57:53;13.20;10.60;8.00
46302;PMS7003;32029;51.358;5.628;2022-08-07T03:00:25;11.40;9.20;7.60
46302;PMS7003;32029;51.358;5.628;2022-08-07T03:02:54;10.80;9.20;8.00
46302;PMS7003;32029;51.358;5.628;2022-08-07T03:05:23;10.00;9.00;8.00
46302;PMS7003;32029;51.358;5.628;2022-08-07T03:07:50;10.00;10.00;8.00
46302;PMS7003;32029;51.358;5.628;2022-08-07T03:10:19;11.20;11.00;9.40
46302;PMS7003;32029;51.358;5.628;2022-08-07T03:12:46;10.67;10.00;8.00
46302;PMS7003;32029;51.358;5.628;2022-08-07T03:15:15;9.80;9.80;8.00
46302;PMS7003;32029;51.358;5.628;2022-08-07T03:17:44;14.40;10.20;9.00
46302;PMS7003;32029;51.358;5.628;2022-08-07T03:20:12;12.00;10.60;8.60
46302;PMS7003;32029;51.358;5.628;2022-08-07T03:22:40;10.67;10.67;9.00
46302;PMS7003;32029;51.358;5.628;2022-08-07T03:25:11;14.80;11.00;9.00
46302;PMS7003;32029;51.358;5.628;2022-08-07T03:27:38;6.67;5.00;3.00
46302;PMS7003;32029;51.358;5.628;2022-08-07T03:30:08;11.00;9.00;8.00
46302;PMS7003;32029;51.358;5.628;2022-08-07T03:32:36;10.00;10.00;8.00
46302;PMS7003;32029;51.358;5.628;2022-08-07T03:35:08;11.40;9.40;7.60
46302;PMS7003;32029;51.358;5.628;2022-08-07T03:37:38;8.00;6.60;6.00
46302;PMS7003;32029;51.358;5.628;2022-08-07T03:40:08;9.33;9.00;6.67
46302;PMS7003;32029;51.358;5.628;2022-08-07T03:42:36;9.40;7.00;5.00
46302;PMS7003;32029;51.358;5.628;2022-08-07T03:45:05;10.20;10.20;9.00
46302;PMS7003;32029;51.358;5.628;2022-08-07T03:47:32;11.33;11.33;9.67
46302;PMS7003;32029;51.358;5.628;2022-08-07T03:50:01;9.20;9.20;7.20
46302;PMS7003;32029;51.358;5.628;2022-08-07T03:52:30;9.80;9.80;8.00
46302;PMS7003;32029;51.358;5.628;2022-08-07T03:54:58;14.67;12.00;9.00
46302;PMS7003;32029;51.358;5.628;2022-08-07T03:57:26;8.33;8.33;7.67
46302;PMS7003;32029;51.358;5.628;2022-08-07T03:59:58;9.00;9.00;8.00
46302;PMS7003;32029;51.358;5.628;2022-08-07T04:02:26;10.00;10.00;8.00
46302;PMS7003;32029;51.358;5.628;2022-08-07T04:04:54;11.33;11.33;8.67
46302;PMS7003;32029;51.358;5.628;2022-08-07T04:07:22;13.00;10.40;8.60
46302;PMS7003;32029;51.358;5.628;2022-08-07T04:09:49;10.33;10.33;9.00
46302;PMS7003;32029;51.358;5.628;2022-08-07T04:12:17;10.00;10.00;8.00
46302;PMS7003;32029;51.358;5.628;2022-08-07T04:14:44;13.33;11.33;10.00
46302;PMS7003;32029;51.358;5.628;2022-08-07T04:17:12;10.00;10.00;9.00
46302;PMS7003;32029;51.358;5.628;2022-08-07T04:19:39;11.00;11.00;9.33
46302;PMS7003;32029;51.358;5.628;2022-08-07T04:22:07;15.00;14.00;9.00
46302;PMS7003;32029;51.358;5.628;2022-08-07T04:24:34;12.67;12.67;9.67
46302;PMS7003;32029;51.358;5.628;2022-08-07T04:27:04;15.33;11.83;9.83
46302;PMS7003;32029;51.358;5.628;2022-08-07T04:29:31;14.00;12.00;10.00
46302;PMS7003;32029;51.358;5.628;2022-08-07T04:31:59;10.20;10.20;9.00
46302;PMS7003;32029;51.358;5.628;2022-08-07T04:34:27;10.40;10.40;7.40
46302;PMS7003;32029;51.358;5.628;2022-08-07T04:36:55;15.67;15.67;9.67
46302;PMS7003;32029;51.358;5.628;2022-08-07T04:39:23;11.00;11.00;9.60
46302;PMS7003;32029;51.358;5.628;2022-08-07T04:41:50;10.67;10.67;9.00
46302;PMS7003;32029;51.358;5.628;2022-08-07T04:44:17;11.67;10.67;9.33
46302;PMS7003;32029;51.358;5.628;2022-08-07T04:46:46;14.00;14.00;10.33
46302;PMS7003;32029;51.358;5.628;2022-08-07T04:58:18;15.67;15.00;11.00
46302;PMS7003;32029;51.358;5.628;2022-08-07T05:00:53;14.00;14.00;12.00
46302;PMS7003;32029;51.358;5.628;2022-08-07T05:03:26;14.33;14.33;11.00
46302;PMS7003;32029;51.358;5.628;2022-08-07T05:05:59;14.67;13.33;10.33
46302;PMS7003;32029;51.358;5.628;2022-08-07T05:08:41;17.33;14.00;11.00
46302;PMS7003;32029;51.358;5.628;2022-08-07T05:11:26;14.00;14.00;11.00
46302;PMS7003;32029;51.358;5.628;2022-08-07T05:14:02;15.00;15.00;11.00
46302;PMS7003;32029;51.358;5.628;2022-08-07T05:16:35;17.67;16.33;12.67
46302;PMS7003;32029;51.358;5.628;2022-08-07T05:19:06;11.60;11.00;7.80
46302;PMS7003;32029;51.358;5.628;2022-08-07T05:21:37;18.00;18.00;13.00
46302;PMS7003;32029;51.358;5.628;2022-08-07T05:24:10;8.00;8.00;6.67
46302;PMS7003;32029;51.358;5.628;2022-08-07T05:26:42;6.00;6.00;5.00
46302;PMS7003;32029;51.358;5.628;2022-08-07T05:29:12;8.67;6.67;5.67
46302;PMS7003;32029;51.358;5.628;2022-08-07T05:31:41;6.67;6.67;6.00
46302;PMS7003;32029;51.358;5.628;2022-08-07T05:34:10;8.00;8.00;6.00
46302;PMS7003;32029;51.358;5.628;2022-08-07T05:36:45;8.00;8.00;5.00
46302;PMS7003;32029;51.358;5.628;2022-08-07T05:39:14;6.00;6.00;4.33
46302;PMS7003;32029;51.358;5.628;2022-08-07T05:41:43;6.00;6.00;4.00
46302;PMS7003;32029;51.358;5.628;2022-08-07T05:44:18;11.00;8.20;5.80
46302;PMS7003;32029;51.358;5.628;2022-08-07T05:46:49;9.67;9.67;7.33
46302;PMS7003;32029;51.358;5.628;2022-08-07T05:49:17;6.80;5.60;4.80
46302;PMS7003;32029;51.358;5.628;2022-08-07T05:51:45;11.00;10.00;7.67
46302;PMS7003;32029;51.358;5.628;2022-08-07T05:54:15;9.00;9.00;7.40
46302;PMS7003;32029;51.358;5.628;2022-08-07T05:56:43;8.60;8.60;6.20
46302;PMS7003;32029;51.358;5.628;2022-08-07T05:59:13;15.33;11.00;9.00
46302;PMS7003;32029;51.358;5.628;2022-08-07T06:01:41;8.33;6.67;5.00
46302;PMS7003;32029;51.358;5.628;2022-08-07T06:04:12;11.00;10.00;8.33
46302;PMS7003;32029;51.358;5.628;2022-08-07T06:06:42;10.80;9.40;7.00
46302;PMS7003;32029;51.358;5.628;2022-08-07T06:09:10;11.60;11.20;9.20
46302;PMS7003;32029;51.358;5.628;2022-08-07T06:11:38;11.00;7.60;6.00
46302;PMS7003;32029;51.358;5.628;2022-08-07T06:14:06;12.60;9.00;6.60
46302;PMS7003;32029;51.358;5.628;2022-08-07T06:16:34;12.20;10.40;7.00
46302;PMS7003;32029;51.358;5.628;2022-08-07T06:19:05;13.20;10.00;8.60
46302;PMS7003;32029;51.358;5.628;2022-08-07T06:21:34;9.40;9.40;7.40
46302;PMS7003;32029;51.358;5.628;2022-08-07T06:24:02;12.00;10.67;8.00
46302;PMS7003;32029;51.358;5.628;2022-08-07T06:26:30;12.80;10.20;7.60
46302;PMS7003;32029;51.358;5.628;2022-08-07T06:28:57;10.00;9.67;7.00
46302;PMS7003;32029;51.358;5.628;2022-08-07T06:31:25;11.67;10.67;8.67
46302;PMS7003;32029;51.358;5.628;2022-08-07T06:33:53;13.20;12.20;7.80
46302;PMS7003;32029;51.358;5.628;2022-08-07T06:36:20;10.33;8.00;7.00
46302;PMS7003;32029;51.358;5.628;2022-08-07T06:38:48;8.60;8.60;7.00
46302;PMS7003;32029;51.358;5.628;2022-08-07T06:43:54;8.67;8.67;7.00
46302;PMS7003;32029;51.358;5.628;2022-08-07T06:46:24;10.60;8.00;6.60
46302;PMS7003;32029;51.358;5.628;2022-08-07T06:48:50;9.00;9.00;7.00
46302;PMS7003;32029;51.358;5.628;2022-08-07T06:51:22;8.40;8.00;7.00
46302;PMS7003;32029;51.358;5.628;2022-08-07T06:53:54;10.20;9.20;6.60
46302;PMS7003;32029;51.358;5.628;2022-08-07T06:56:29;9.00;9.00;8.33
46302;PMS7003;32029;51.358;5.628;2022-08-07T06:59:07;11.00;9.00;7.60
46302;PMS7003;32029;51.358;5.628;2022-08-07T07:01:38;15.20;10.60;8.00
46302;PMS7003;32029;51.358;5.628;2022-08-07T07:04:07;13.00;9.33;7.67
46302;PMS7003;32029;51.358;5.628;2022-08-07T07:06:34;11.00;8.67;7.00
46302;PMS7003;32029;51.358;5.628;2022-08-07T07:09:17;11.00;9.00;7.67
46302;PMS7003;32029;51.358;5.628;2022-08-07T07:11:57;11.80;6.60;5.00
46302;PMS7003;32029;51.358;5.628;2022-08-07T07:14:44;9.20;9.20;6.00
46302;PMS7003;32029;51.358;5.628;2022-08-07T07:23:19;9.00;8.20;5.20
46302;PMS7003;32029;51.358;5.628;2022-08-07T07:25:46;11.00;8.67;6.67
46302;PMS7003;32029;51.358;5.628;2022-08-07T07:28:32;9.67;9.00;7.00
46302;PMS7003;32029;51.358;5.628;2022-08-07T07:31:09;8.00;6.00;4.33
46302;PMS7003;32029;51.358;5.628;2022-08-07T07:33:42;8.00;8.00;7.20
46302;PMS7003;32029;51.358;5.628;2022-08-07T07:38:47;11.00;7.67;5.33
46302;PMS7003;32029;51.358;5.628;2022-08-07T07:41:28;6.00;6.00;5.00
46302;PMS7003;32029;51.358;5.628;2022-08-07T07:44:00;9.00;7.00;5.00
46302;PMS7003;32029;51.358;5.628;2022-08-07T07:46:30;7.60;6.40;5.40
46302;PMS7003;32029;51.358;5.628;2022-08-07T07:49:01;7.80;7.60;5.60
46302;PMS7003;32029;51.358;5.628;2022-08-07T07:51:31;6.00;6.00;5.40
46302;PMS7003;32029;51.358;5.628;2022-08-07T07:54:03;7.60;7.20;6.40
46302;PMS7003;32029;51.358;5.628;2022-08-07T07:56:32;7.40;6.60;6.00
46302;PMS7003;32029;51.358;5.628;2022-08-07T07:59:01;5.00;3.00;3.00
46302;PMS7003;32029;51.358;5.628;2022-08-07T08:01:32;6.00;6.00;4.40
46302;PMS7003;32029;51.358;5.628;2022-08-07T08:04:01;4.67;4.67;4.00
46302;PMS7003;32029;51.358;5.628;2022-08-07T08:06:30;5.33;4.00;4.00
46302;PMS7003;32029;51.358;5.628;2022-08-07T08:08:59;6.00;4.67;4.00
46302;PMS7003;32029;51.358;5.628;2022-08-07T08:11:29;6.00;6.00;5.00
46302;PMS7003;32029;51.358;5.628;2022-08-07T08:13:57;7.20;5.00;4.60
46302;PMS7003;32029;51.358;5.628;2022-08-07T08:16:34;7.00;5.00;5.00
46302;PMS7003;32029;51.358;5.628;2022-08-07T08:19:07;4.00;4.00;3.00
46302;PMS7003;32029;51.358;5.628;2022-08-07T08:21:39;3.00;3.00;2.60
46302;PMS7003;32029;51.358;5.628;2022-08-07T08:24:26;4.00;4.00;3.00
46302;PMS7003;32029;51.358;5.628;2022-08-07T08:27:13;3.00;3.00;3.00
46302;PMS7003;32029;51.358;5.628;2022-08-07T08:32:23;3.33;2.33;2.33
46302;PMS7003;32029;51.358;5.628;2022-08-07T08:34:52;6.00;5.00;5.00
46302;PMS7003;32029;51.358;5.628;2022-08-07T08:37:22;2.00;2.00;1.00
46302;PMS7003;32029;51.358;5.628;2022-08-07T08:39:52;5.00;3.00;2.67
46302;PMS7003;32029;51.358;5.628;2022-08-07T08:42:42;3.00;3.00;3.00
46302;PMS7003;32029;51.358;5.628;2022-08-07T08:45:20;3.00;2.33;2.33
46302;PMS7003;32029;51.358;5.628;2022-08-07T08:48:05;3.67;3.67;3.00
46302;PMS7003;32029;51.358;5.628;2022-08-07T08:50:36;2.00;2.00;2.00
46302;PMS7003;32029;51.358;5.628;2022-08-07T08:56:10;2.00;1.33;1.00
46302;PMS7003;32029;51.358;5.628;2022-08-07T09:01:33;2.00;2.00;2.00
46302;PMS7003;32029;51.358;5.628;2022-08-07T09:04:17;2.00;1.00;1.00
46302;PMS7003;32029;51.358;5.628;2022-08-07T09:06:56;3.33;2.00;2.00
46302;PMS7003;32029;51.358;5.628;2022-08-07T09:12:09;3.33;1.00;1.00
46302;PMS7003;32029;51.358;5.628;2022-08-07T09:14:47;2.00;2.00;2.00
46302;PMS7003;32029;51.358;5.628;2022-08-07T09:17:41;4.00;2.00;2.00
46302;PMS7003;32029;51.358;5.628;2022-08-07T09:20:28;2.00;2.00;1.33
46302;PMS7003;32029;51.358;5.628;2022-08-07T09:23:01;3.00;2.00;1.00
46302;PMS7003;32029;51.358;5.628;2022-08-07T09:25:46;3.00;3.00;2.33
46302;PMS7003;32029;51.358;5.628;2022-08-07T09:28:40;0.67;0.67;0.67
46302;PMS7003;32029;51.358;5.628;2022-08-07T09:31:22;2.67;2.00;1.33
46302;PMS7003;32029;51.358;5.628;2022-08-07T09:36:58;2.67;2.67;2.00
46302;PMS7003;32029;51.358;5.628;2022-08-07T09:39:40;2.00;1.33;0.33
46302;PMS7003;32029;51.358;5.628;2022-08-07T09:45:14;4.00;2.33;2.00
46302;PMS7003;32029;51.358;5.628;2022-08-07T09:53:08;0.67;0.67;0.67
46302;PMS7003;32029;51.358;5.628;2022-08-07T10:09:51;3.00;3.00;2.00
46302;PMS7003;32029;51.358;5.628;2022-08-07T10:15:22;1.33;1.33;1.33
46302;PMS7003;32029;51.358;5.628;2022-08-07T10:18:10;1.67;1.00;1.00
46302;PMS7003;32029;51.358;5.628;2022-08-07T10:29:51;2.00;1.00;1.00
46302;PMS7003;32029;51.358;5.628;2022-08-07T10:35:18;1.00;1.00;1.00
46302;PMS7003;32029;51.358;5.628;2022-08-07T10:38:05;2.67;2.00;1.00
46302;PMS7003;32029;51.358;5.628;2022-08-07T10:44:16;1.00;1.00;1.00
46302;PMS7003;32029;51.358;5.628;2022-08-07T10:47:00;1.00;1.00;1.00
46302;PMS7003;32029;51.358;5.628;2022-08-07T10:52:20;0.00;0.00;0.00
46302;PMS7003;32029;51.358;5.628;2022-08-07T10:55:16;0.33;0.33;0.00
46302;PMS7003;32029;51.358;5.628;2022-08-07T10:57:50;0.00;0.00;0.00
46302;PMS7003;32029;51.358;5.628;2022-08-07T11:00:33;2.00;1.00;0.67
46302;PMS7003;32029;51.358;5.628;2022-08-07T11:03:13;1.00;1.00;1.00
46302;PMS7003;32029;51.358;5.628;2022-08-07T11:06:02;2.00;1.00;0.67
46302;PMS7003;32029;51.358;5.628;2022-08-07T11:11:19;1.00;1.00;0.00
46302;PMS7003;32029;51.358;5.628;2022-08-07T11:13:58;2.00;2.00;2.00
46302;PMS7003;32029;51.358;5.628;2022-08-07T11:21:48;2.00;2.00;1.67
46302;PMS7003;32029;51.358;5.628;2022-08-07T11:24:44;1.00;1.00;1.00
46302;PMS7003;32029;51.358;5.628;2022-08-07T11:41:36;1.67;1.33;1.33
46302;PMS7003;32029;51.358;5.628;2022-08-07T11:52:41;1.00;1.00;1.00
46302;PMS7003;32029;51.358;5.628;2022-08-07T12:01:16;1.00;1.00;1.00
46302;PMS7003;32029;51.358;5.628;2022-08-07T12:04:04;3.67;2.00;1.33
46302;PMS7003;32029;51.358;5.628;2022-08-07T12:06:45;2.00;2.00;1.67
46302;PMS7003;32029;51.358;5.628;2022-08-07T12:11:54;3.00;3.00;2.00
46302;PMS7003;32029;51.358;5.628;2022-08-07T12:14:28;3.00;1.60;1.40
46302;PMS7003;32029;51.358;5.628;2022-08-07T12:17:00;1.33;1.33;1.00
46302;PMS7003;32029;51.358;5.628;2022-08-07T12:19:48;2.40;2.40;2.00
46302;PMS7003;32029;51.358;5.628;2022-08-07T12:25:08;2.33;2.00;1.00
46302;PMS7003;32029;51.358;5.628;2022-08-07T12:28:02;2.00;2.00;2.00
46302;PMS7003;32029;51.358;5.628;2022-08-07T12:30:32;1.67;1.67;1.33
46302;PMS7003;32029;51.358;5.628;2022-08-07T12:33:11;3.00;3.00;2.00
46302;PMS7003;32029;51.358;5.628;2022-08-07T12:35:45;1.00;1.00;1.00
46302;PMS7003;32029;51.358;5.628;2022-08-07T12:38:13;2.33;1.00;1.00
46302;PMS7003;32029;51.358;5.628;2022-08-07T12:40:41;3.00;2.00;2.00
46302;PMS7003;32029;51.358;5.628;2022-08-07T12:43:12;3.00;2.00;1.00
46302;PMS7003;32029;51.358;5.628;2022-08-07T12:45:46;1.00;1.00;1.00
46302;PMS7003;32029;51.358;5.628;2022-08-07T12:48:26;1.00;1.00;1.00
46302;PMS7003;32029;51.358;5.628;2022-08-07T12:51:20;1.00;1.00;1.00
46302;PMS7003;32029;51.358;5.628;2022-08-07T12:59:06;2.00;1.80;1.40
46302;PMS7003;32029;51.358;5.628;2022-08-07T13:07:43;2.00;2.00;2.00
46302;PMS7003;32029;51.358;5.628;2022-08-07T13:13:26;2.00;2.00;1.67
46302;PMS7003;32029;51.358;5.628;2022-08-07T13:15:59;2.67;1.00;1.00
46302;PMS7003;32029;51.358;5.628;2022-08-07T13:21:28;2.00;2.00;1.00
46302;PMS7003;32029;51.358;5.628;2022-08-07T13:26:36;3.00;3.00;1.67
46302;PMS7003;32029;51.358;5.628;2022-08-07T13:29:10;1.00;1.00;1.00
46302;PMS7003;32029;51.358;5.628;2022-08-07T13:34:22;1.00;1.00;1.00
46302;PMS7003;32029;51.358;5.628;2022-08-07T13:37:08;1.00;1.00;1.00
46302;PMS7003;32029;51.358;5.628;2022-08-07T13:39:45;2.67;2.67;2.00
46302;PMS7003;32029;51.358;5.628;2022-08-07T13:42:24;2.33;0.67;0.33
46302;PMS7003;32029;51.358;5.628;2022-08-07T13:44:52;1.00;0.67;0.67
46302;PMS7003;32029;51.358;5.628;2022-08-07T13:47:21;1.00;1.00;1.00
46302;PMS7003;32029;51.358;5.628;2022-08-07T13:49:53;2.33;0.00;0.00
46302;PMS7003;32029;51.358;5.628;2022-08-07T13:52:25;2.00;1.00;1.00
46302;PMS7003;32029;51.358;5.628;2022-08-07T13:54:55;1.33;1.33;1.00
46302;PMS7003;32029;51.358;5.628;2022-08-07T13:57:25;2.00;2.00;1.33
46302;PMS7003;32029;51.358;5.628;2022-08-07T13:59:53;1.00;1.00;1.00
46302;PMS7003;32029;51.358;5.628;2022-08-07T14:02:25;2.00;2.00;2.00
46302;PMS7003;32029;51.358;5.628;2022-08-07T14:04:55;1.00;1.00;1.00
46302;PMS7003;32029;51.358;5.628;2022-08-07T14:07:27;2.40;2.00;1.40
46302;PMS7003;32029;51.358;5.628;2022-08-07T14:09:58;1.33;1.33;1.00
46302;PMS7003;32029;51.358;5.628;2022-08-07T14:12:39;3.00;1.40;1.20
46302;PMS7003;32029;51.358;5.628;2022-08-07T14:15:17;1.00;1.00;1.00
46302;PMS7003;32029;51.358;5.628;2022-08-07T14:17:44;0.67;0.33;0.00
46302;PMS7003;32029;51.358;5.628;2022-08-07T14:20:20;0.67;0.00;0.00
46302;PMS7003;32029;51.358;5.628;2022-08-07T14:22:51;2.00;2.00;1.67
46302;PMS7003;32029;51.358;5.628;2022-08-07T14:25:29;2.33;1.00;1.00
46302;PMS7003;32029;51.358;5.628;2022-08-07T14:28:01;0.67;0.67;0.67
46302;PMS7003;32029;51.358;5.628;2022-08-07T14:30:31;0.00;0.00;0.00
46302;PMS7003;32029;51.358;5.628;2022-08-07T14:33:00;1.00;1.00;1.00
46302;PMS7003;32029;51.358;5.628;2022-08-07T14:35:30;1.67;1.67;1.67
46302;PMS7003;32029;51.358;5.628;2022-08-07T14:37:59;0.33;0.33;0.33
46302;PMS7003;32029;51.358;5.628;2022-08-07T14:40:27;0.00;0.00;0.00
46302;PMS7003;32029;51.358;5.628;2022-08-07T14:43:00;2.33;1.67;1.00
46302;PMS7003;32029;51.358;5.628;2022-08-07T14:45:33;2.00;0.80;0.20
46302;PMS7003;32029;51.358;5.628;2022-08-07T14:48:08;10.00;9.20;6.60
46302;PMS7003;32029;51.358;5.628;2022-08-07T14:50:41;1.80;1.20;1.20
46302;PMS7003;32029;51.358;5.628;2022-08-07T14:53:12;1.00;1.00;0.67
46302;PMS7003;32029;51.358;5.628;2022-08-07T14:55:39;3.33;1.00;1.00
46302;PMS7003;32029;51.358;5.628;2022-08-07T14:58:11;3.00;1.20;1.20
46302;PMS7003;32029;51.358;5.628;2022-08-07T15:00:41;1.33;1.00;1.00
46302;PMS7003;32029;51.358;5.628;2022-08-07T15:03:10;3.00;3.00;2.00
46302;PMS7003;32029;51.358;5.628;2022-08-07T15:05:37;2.00;2.00;1.67
46302;PMS7003;32029;51.358;5.628;2022-08-07T15:08:06;1.33;1.33;1.00
46302;PMS7003;32029;51.358;5.628;2022-08-07T15:10:35;1.00;1.00;1.00
46302;PMS7003;32029;51.358;5.628;2022-08-07T15:13:18;1.00;1.00;1.00
46302;PMS7003;32029;51.358;5.628;2022-08-07T15:15:50;1.20;1.20;1.00
46302;PMS7003;32029;51.358;5.628;2022-08-07T15:18:32;1.00;1.00;1.00
46302;PMS7003;32029;51.358;5.628;2022-08-07T15:21:06;2.00;2.00;2.00
46302;PMS7003;32029;51.358;5.628;2022-08-07T15:23:38;2.00;2.00;1.00
46302;PMS7003;32029;51.358;5.628;2022-08-07T15:26:05;1.33;1.33;1.00
46302;PMS7003;32029;51.358;5.628;2022-08-07T15:28:36;2.60;2.00;1.00
46302;PMS7003;32029;51.358;5.628;2022-08-07T15:31:07;1.40;1.00;1.00
46302;PMS7003;32029;51.358;5.628;2022-08-07T15:33:38;3.67;1.00;1.00
46302;PMS7003;32029;51.358;5.628;2022-08-07T15:36:06;1.00;1.00;0.67
46302;PMS7003;32029;51.358;5.628;2022-08-07T15:38:35;7.00;6.67;5.67
46302;PMS7003;32029;51.358;5.628;2022-08-07T15:41:14;3.40;3.00;3.00
46302;PMS7003;32029;51.358;5.628;2022-08-07T15:43:44;11.00;10.80;9.20
46302;PMS7003;32029;51.358;5.628;2022-08-07T15:46:24;1.00;1.00;1.00
46302;PMS7003;32029;51.358;5.628;2022-08-07T15:48:53;2.00;2.00;1.67
46302;PMS7003;32029;51.358;5.628;2022-08-07T15:51:24;1.00;1.00;0.67
46302;PMS7003;32029;51.358;5.628;2022-08-07T15:53:53;1.00;1.00;0.00
46302;PMS7003;32029;51.358;5.628;2022-08-07T15:56:32;6.67;6.67;5.33
46302;PMS7003;32029;51.358;5.628;2022-08-07T15:59:03;0.60;0.60;0.40
46302;PMS7003;32029;51.358;5.628;2022-08-07T16:01:33;2.67;1.67;1.00
46302;PMS7003;32029;51.358;5.628;2022-08-07T16:04:06;5.00;2.40;1.40
46302;PMS7003;32029;51.358;5.628;2022-08-07T16:06:36;1.00;0.00;0.00
46302;PMS7003;32029;51.358;5.628;2022-08-07T16:09:11;1.00;1.00;0.00
46302;PMS7003;32029;51.358;5.628;2022-08-07T16:17:56;0.00;0.00;0.00
46302;PMS7003;32029;51.358;5.628;2022-08-07T16:33:52;1.80;1.00;1.00
46302;PMS7003;32029;51.358;5.628;2022-08-07T16:39:22;0.00;0.00;0.00
46302;PMS7003;32029;51.358;5.628;2022-08-07T16:47:26;1.00;1.00;0.20
46302;PMS7003;32029;51.358;5.628;2022-08-07T16:50:30;23.67;22.00;18.33
46302;PMS7003;32029;51.358;5.628;2022-08-07T16:53:16;1.60;1.60;1.20
46302;PMS7003;32029;51.358;5.628;2022-08-07T16:58:53;0.00;0.00;0.00
46302;PMS7003;32029;51.358;5.628;2022-08-07T17:01:34;0.00;0.00;0.00
46302;PMS7003;32029;51.358;5.628;2022-08-07T17:04:09;0.00;0.00;0.00
46302;PMS7003;32029;51.358;5.628;2022-08-07T17:09:28;0.00;0.00;0.00
46302;PMS7003;32029;51.358;5.628;2022-08-07T17:20:52;0.00;0.00;0.00
46302;PMS7003;32029;51.358;5.628;2022-08-07T17:26:10;1.00;0.00;0.00
46302;PMS7003;32029;51.358;5.628;2022-08-07T17:31:48;0.67;0.00;0.00
46302;PMS7003;32029;51.358;5.628;2022-08-07T17:37:14;0.00;0.00;0.00
46302;PMS7003;32029;51.358;5.628;2022-08-07T17:40:05;0.00;0.00;0.00
46302;PMS7003;32029;51.358;5.628;2022-08-07T17:45:26;1.00;1.00;1.00
46302;PMS7003;32029;51.358;5.628;2022-08-07T17:48:06;0.00;0.00;0.00
46302;PMS7003;32029;51.358;5.628;2022-08-07T17:50:47;0.00;0.00;0.00
46302;PMS7003;32029;51.358;5.628;2022-08-07T17:53:23;1.00;0.00;0.00
46302;PMS7003;32029;51.358;5.628;2022-08-07T17:56:07;0.00;0.00;0.00
46302;PMS7003;32029;51.358;5.628;2022-08-07T17:58:43;0.00;0.00;0.00
46302;PMS7003;32029;51.358;5.628;2022-08-07T18:02:06;0.33;0.33;0.00
46302;PMS7003;32029;51.358;5.628;2022-08-07T18:09:49;0.00;0.00;0.00
46302;PMS7003;32029;51.358;5.628;2022-08-07T18:15:24;0.00;0.00;0.00